Time;durP1;ratioP1;P1;durP2;ratioP2;P2;SDS_P1;SDS_P2;PMS_P1;PMS_P2;Temp;Humidity;BMP_temperature;BMP_pressure;BME280_temperature;BME280_humidity;BME280_pressure;Samples;Min_cycle;Max_cycle;Signal;HPM_P1;HPM_P2
2021/01/18 00:01:36;;;;;;;17.63;13.32;;;19.70;44.80;;;;;;5091920;28;20386;-60
2021/01/18 00:04:03;;;;;;;17.50;12.77;;;19.60;44.70;;;;;;5092656;28;20462;-50
2021/01/18 00:06:29;;;;;;;16.83;13.32;;;19.60;44.70;;;;;;5093130;28;20377;-50
2021/01/18 00:08:55;;;;;;;13.23;11.93;;;19.60;44.70;;;;;;5096654;28;20028;-50
2021/01/18 00:11:22;;;;;;;14.40;12.10;;;19.60;44.70;;;;;;5097316;28;20035;-50
2021/01/18 00:13:50;;;;;;;16.05;12.43;;;19.60;44.70;;;;;;5097436;28;20055;-51
2021/01/18 00:16:18;;;;;;;13.18;11.70;;;19.60;44.60;;;;;;5097288;28;20398;-50
2021/01/18 00:18:44;;;;;;;13.60;12.20;;;19.50;44.60;;;;;;5096192;28;20482;-51
2021/01/18 00:21:11;;;;;;;13.02;11.23;;;19.50;44.50;;;;;;5096535;28;20048;-50
2021/01/18 00:23:38;;;;;;;15.65;11.95;;;19.50;44.50;;;;;;5096682;28;20032;-49
2021/01/18 00:26:05;;;;;;;13.75;11.60;;;19.50;44.40;;;;;;5096975;28;20039;-50
2021/01/18 00:28:34;;;;;;;13.75;11.13;;;19.50;44.40;;;;;;5097110;28;20066;-50
2021/01/18 00:31:02;;;;;;;13.05;10.18;;;19.50;44.30;;;;;;5097516;28;20028;-50
2021/01/18 00:33:28;;;;;;;13.15;9.63;;;19.40;44.20;;;;;;5096638;28;20040;-51
2021/01/18 00:35:54;;;;;;;12.10;10.75;;;19.40;44.20;;;;;;5096791;28;20111;-51
2021/01/18 00:38:20;;;;;;;12.43;10.50;;;19.40;44.20;;;;;;5096746;28;20524;-50
2021/01/18 00:40:46;;;;;;;11.93;10.63;;;19.40;44.20;;;;;;5095549;28;20028;-50
2021/01/18 00:43:12;;;;;;;13.60;10.85;;;19.40;44.20;;;;;;5096741;28;20028;-50
2021/01/18 00:45:38;;;;;;;11.65;10.05;;;19.40;44.20;;;;;;5096623;28;20027;-50
2021/01/18 00:48:04;;;;;;;11.10;9.70;;;19.30;44.20;;;;;;5096387;28;20036;-50
2021/01/18 00:50:31;;;;;;;12.13;10.18;;;19.30;44.10;;;;;;5096040;28;20385;-50
2021/01/18 00:52:59;;;;;;;12.88;9.95;;;19.30;44.20;;;;;;5076958;28;20432;-50
2021/01/18 00:55:27;;;;;;;12.10;10.17;;;19.30;44.20;;;;;;5074951;28;20040;-50
2021/01/18 00:58:15;;;;;;;13.38;9.57;;;19.30;44.20;;;;;;5075323;28;20400;-50
2021/01/18 01:00:50;;;;;;;11.13;9.88;;;19.30;44.00;;;;;;5074644;28;20035;-50
2021/01/18 01:03:19;;;;;;;11.10;9.98;;;19.30;44.10;;;;;;5091703;28;20036;-50
2021/01/18 01:05:45;;;;;;;12.50;9.60;;;19.30;44.10;;;;;;5076236;28;20037;-50
2021/01/18 01:08:11;;;;;;;13.25;9.77;;;19.30;44.00;;;;;;5076179;28;20428;-50
2021/01/18 01:10:37;;;;;;;11.15;9.45;;;19.20;44.00;;;;;;5075835;28;20493;-50
2021/01/18 01:13:05;;;;;;;10.60;8.93;;;19.20;43.90;;;;;;5076062;28;20032;-50
2021/01/18 01:15:32;;;;;;;9.75;8.75;;;19.20;43.80;;;;;;5075871;28;20025;-50
2021/01/18 01:17:58;;;;;;;11.38;9.35;;;19.20;43.90;;;;;;5075801;28;20532;-50
2021/01/18 01:20:25;;;;;;;12.10;9.90;;;19.10;43.80;;;;;;5073139;28;20399;-50
2021/01/18 01:22:53;;;;;;;10.75;8.77;;;19.10;43.80;;;;;;5091225;28;20021;-50
2021/01/18 01:25:23;;;;;;;12.43;9.02;;;19.20;43.80;;;;;;5075672;28;20059;-50
2021/01/18 01:27:49;;;;;;;14.13;10.02;;;19.10;43.80;;;;;;5075851;28;20466;-50
2021/01/18 01:30:23;;;;;;;13.40;9.52;;;19.10;43.70;;;;;;5075382;28;20390;-50
2021/01/18 01:32:51;;;;;;;12.82;9.20;;;19.10;43.60;;;;;;5075792;28;20041;-50
2021/01/18 01:35:19;;;;;;;14.05;9.98;;;19.10;43.70;;;;;;5075582;28;20803;-50
2021/01/18 01:37:46;;;;;;;14.20;9.35;;;19.10;43.60;;;;;;5074708;28;20036;-50
2021/01/18 01:40:13;;;;;;;10.23;9.18;;;19.00;43.50;;;;;;5075673;28;20029;-50
2021/01/18 01:42:41;;;;;;;14.20;9.20;;;19.00;43.40;;;;;;5075600;28;20025;-50
2021/01/18 01:45:09;;;;;;;10.25;9.23;;;19.00;43.40;;;;;;5075606;28;20029;-49
2021/01/18 01:47:50;;;;;;;11.48;9.20;;;19.00;43.20;;;;;;5075338;28;20561;-50
2021/01/18 01:50:21;;;;;;;10.55;9.07;;;18.90;43.10;;;;;;5075334;28;20085;-50
2021/01/18 01:52:56;;;;;;;13.10;9.35;;;18.90;43.00;;;;;;5075585;28;20025;-50
2021/01/18 01:55:29;;;;;;;12.20;9.15;;;18.90;43.00;;;;;;5075504;28;20039;-50
2021/01/18 01:57:57;;;;;;;9.07;8.13;;;18.80;42.80;;;;;;5075284;28;20029;-50
2021/01/18 02:00:24;;;;;;;12.38;8.52;;;18.80;43.00;;;;;;5075104;28;20050;-50
2021/01/18 02:02:51;;;;;;;12.23;9.15;;;18.80;42.90;;;;;;5085130;28;20461;-50
2021/01/18 02:05:17;;;;;;;11.40;8.80;;;18.80;42.80;;;;;;5095163;28;20021;-50
2021/01/18 02:07:44;;;;;;;10.63;9.23;;;18.70;42.80;;;;;;5094902;28;20116;-50
2021/01/18 02:10:11;;;;;;;10.82;8.13;;;18.70;42.70;;;;;;5111034;28;20039;-50
2021/01/18 02:12:38;;;;;;;9.73;8.68;;;18.70;42.70;;;;;;5095052;28;20382;-50
2021/01/18 02:15:17;;;;;;;12.80;8.50;;;18.70;42.60;;;;;;5095022;28;20024;-50
2021/01/18 02:18:17;;;;;;;9.17;8.27;;;18.60;42.40;;;;;;5093748;28;20036;-50
2021/01/18 02:20:43;;;;;;;10.35;8.93;;;18.60;42.60;;;;;;5094491;28;20028;-50
2021/01/18 02:23:27;;;;;;;10.10;8.60;;;18.70;42.50;;;;;;5094734;28;20024;-50
2021/01/18 02:26:01;;;;;;;10.95;7.60;;;18.60;42.50;;;;;;5094814;28;20031;-50
2021/01/18 02:28:39;;;;;;;10.30;7.85;;;18.60;42.30;;;;;;5094859;28;20391;-50
2021/01/18 02:31:31;;;;;;;10.60;8.38;;;18.50;42.20;;;;;;5094500;28;20085;-50
2021/01/18 02:34:21;;;;;;;14.10;7.97;;;18.50;42.20;;;;;;5094467;28;20052;-50
2021/01/18 02:37:25;;;;;;;10.50;8.38;;;18.50;42.20;;;;;;5094645;28;20031;-50
2021/01/18 02:40:06;;;;;;;10.35;8.07;;;18.50;42.70;;;;;;5071229;28;20474;-51
2021/01/18 02:42:53;;;;;;;10.75;8.30;;;18.40;41.80;;;;;;5072162;28;20394;-51
2021/01/18 02:45:22;;;;;;;10.10;7.60;;;18.40;42.00;;;;;;5072221;28;20040;-49
2021/01/18 02:47:50;;;;;;;8.60;7.15;;;18.40;42.00;;;;;;5071863;28;20043;-49
2021/01/18 02:50:17;;;;;;;10.23;7.57;;;18.40;42.00;;;;;;5071862;28;20111;-49
2021/01/18 02:52:44;;;;;;;10.43;7.25;;;18.40;41.80;;;;;;5071579;28;20059;-49
2021/01/18 02:55:12;;;;;;;9.77;7.18;;;18.40;41.80;;;;;;5071538;28;20040;-49
2021/01/18 02:57:42;;;;;;;9.82;7.60;;;18.40;41.70;;;;;;5071360;28;20044;-49
2021/01/18 03:00:15;;;;;;;8.82;6.68;;;18.40;41.60;;;;;;5071429;28;20494;-49
2021/01/18 03:02:45;;;;;;;9.02;7.25;;;18.30;41.40;;;;;;5071330;28;20032;-49
2021/01/18 03:05:34;;;;;;;8.73;6.55;;;18.30;41.80;;;;;;5071526;28;20040;-49
2021/01/18 03:08:18;;;;;;;6.80;6.05;;;18.30;41.20;;;;;;5071780;28;20059;-49
2021/01/18 03:10:56;;;;;;;8.23;6.20;;;18.30;41.20;;;;;;5084001;28;20501;-49
2021/01/18 03:13:43;;;;;;;7.40;6.63;;;18.30;41.10;;;;;;5092697;28;20038;-50
2021/01/18 03:16:20;;;;;;;10.75;6.45;;;18.30;41.20;;;;;;5093702;28;20061;-49
2021/01/18 03:18:49;;;;;;;8.25;6.78;;;18.30;41.10;;;;;;5093526;28;20105;-49
2021/01/18 03:21:17;;;;;;;10.75;7.03;;;18.30;41.70;;;;;;5093565;28;20016;-49
2021/01/18 03:23:44;;;;;;;8.65;6.50;;;18.30;41.10;;;;;;5093605;28;20024;-49
2021/01/18 03:26:11;;;;;;;7.47;6.65;;;18.30;41.30;;;;;;5093736;28;20051;-50
2021/01/18 03:28:38;;;;;;;10.38;6.90;;;18.30;41.30;;;;;;5093450;28;20050;-49
2021/01/18 03:31:04;;;;;;;7.45;6.03;;;18.30;41.30;;;;;;5093617;28;20091;-49
2021/01/18 03:33:30;;;;;;;8.50;6.63;;;18.30;41.30;;;;;;5093312;28;20056;-49
2021/01/18 03:35:57;;;;;;;7.25;6.50;;;18.30;41.30;;;;;;5093273;28;20036;-59
2021/01/18 03:38:24;;;;;;;8.93;6.40;;;18.30;41.30;;;;;;5092076;28;20077;-59
2021/01/18 03:40:51;;;;;;;11.13;6.88;;;18.30;41.20;;;;;;5092100;28;20032;-60
2021/01/18 03:43:20;;;;;;;7.85;7.07;;;18.30;41.20;;;;;;5091391;28;20064;-60
2021/01/18 03:45:46;;;;;;;8.48;7.38;;;18.30;41.20;;;;;;5092266;28;20028;-59
2021/01/18 03:48:13;;;;;;;8.02;6.75;;;18.30;41.20;;;;;;5092031;28;20024;-60
2021/01/18 03:50:40;;;;;;;9.55;7.47;;;18.30;41.10;;;;;;5092030;28;20493;-59
2021/01/18 03:53:08;;;;;;;9.73;7.78;;;18.30;41.10;;;;;;5092093;28;20478;-60
2021/01/18 03:55:34;;;;;;;9.05;7.97;;;18.30;41.10;;;;;;5092063;28;20027;-60
2021/01/18 03:58:00;;;;;;;10.05;7.88;;;18.30;41.00;;;;;;5092072;28;20039;-60
2021/01/18 04:00:28;;;;;;;8.32;7.30;;;18.30;41.10;;;;;;5107696;28;20024;-59
2021/01/18 04:02:54;;;;;;;9.15;6.95;;;18.20;41.00;;;;;;5091927;28;20046;-59
2021/01/18 04:05:22;;;;;;;8.25;7.35;;;18.20;41.10;;;;;;5090760;28;20032;-60
2021/01/18 04:07:49;;;;;;;7.80;7.03;;;18.20;41.00;;;;;;5091736;28;20054;-59
2021/01/18 04:10:18;;;;;;;8.68;7.47;;;18.20;41.00;;;;;;5091957;28;20436;-59
2021/01/18 04:12:47;;;;;;;7.68;6.72;;;18.20;41.00;;;;;;5091749;28;20143;-59
2021/01/18 04:15:15;;;;;;;9.80;6.57;;;18.10;40.90;;;;;;5091726;28;20550;-59
2021/01/18 04:17:43;;;;;;;9.40;7.53;;;18.20;40.90;;;;;;5091995;28;20013;-60
2021/01/18 04:20:10;;;;;;;8.57;7.18;;;18.10;40.90;;;;;;5092094;28;20047;-59
2021/01/18 04:22:42;;;;;;;8.20;6.90;;;18.10;41.00;;;;;;5091904;28;20023;-60
2021/01/18 04:25:09;;;;;;;7.38;6.28;;;18.10;41.00;;;;;;5091820;28;20505;-59
2021/01/18 04:27:35;;;;;;;8.85;5.82;;;18.10;40.90;;;;;;5089686;28;20035;-59
2021/01/18 04:30:01;;;;;;;7.35;6.40;;;18.10;40.70;;;;;;5091854;28;20032;-59
2021/01/18 04:32:27;;;;;;;7.20;6.50;;;18.10;40.80;;;;;;5091485;28;20111;-60
2021/01/18 04:34:53;;;;;;;7.00;6.15;;;18.10;40.80;;;;;;5091678;28;20448;-60
2021/01/18 04:37:19;;;;;;;7.75;6.60;;;18.10;40.80;;;;;;5091490;28;20417;-60
2021/01/18 04:39:45;;;;;;;6.95;5.68;;;18.00;40.70;;;;;;5091745;28;20052;-59
2021/01/18 04:42:11;;;;;;;8.43;6.03;;;18.00;40.70;;;;;;5091830;28;20051;-59
2021/01/18 04:44:38;;;;;;;7.60;6.70;;;18.00;40.70;;;;;;5091623;28;20754;-59
2021/01/18 04:47:05;;;;;;;7.75;6.70;;;18.00;41.30;;;;;;5090193;28;20032;-60
2021/01/18 04:49:31;;;;;;;9.30;6.40;;;18.00;40.80;;;;;;5090392;28;20028;-59
2021/01/18 04:51:57;;;;;;;8.38;6.82;;;18.00;40.80;;;;;;5092273;28;20091;-50
2021/01/18 04:54:27;;;;;;;8.13;6.68;;;18.00;40.80;;;;;;5094857;28;20103;-50
2021/01/18 04:57:12;;;;;;;6.78;6.07;;;18.00;40.70;;;;;;5096452;28;20825;-50
2021/01/18 04:59:42;;;;;;;7.63;6.53;;;18.00;40.70;;;;;;5096150;28;20050;-50
2021/01/18 05:02:12;;;;;;;7.80;6.72;;;18.00;40.60;;;;;;5096427;28;20024;-50
2021/01/18 05:04:44;;;;;;;10.15;7.28;;;18.00;40.60;;;;;;5096383;28;20039;-50
2021/01/18 05:07:34;;;;;;;7.70;6.68;;;17.90;40.60;;;;;;5096240;28;20086;-50
2021/01/18 05:10:09;;;;;;;6.43;5.82;;;17.90;40.50;;;;;;5096356;28;20494;-49
2021/01/18 05:12:40;;;;;;;7.80;6.90;;;17.90;40.50;;;;;;5096243;28;20028;-50
2021/01/18 05:15:07;;;;;;;9.32;7.03;;;17.90;40.50;;;;;;5094845;28;20763;-50
2021/01/18 05:17:39;;;;;;;9.77;6.90;;;17.90;40.60;;;;;;5096100;28;20386;-50
2021/01/18 05:20:08;;;;;;;8.57;7.53;;;17.80;40.50;;;;;;5094934;28;20469;-59
2021/01/18 05:22:34;;;;;;;7.47;6.38;;;17.80;40.50;;;;;;5094843;28;20028;-59
2021/01/18 05:25:01;;;;;;;8.95;6.72;;;17.80;40.60;;;;;;5094658;28;20039;-60
2021/01/18 05:27:27;;;;;;;9.10;6.32;;;17.80;40.50;;;;;;5094632;28;20031;-60
2021/01/18 05:29:57;;;;;;;7.95;6.47;;;17.70;40.50;;;;;;5094836;28;20067;-60
2021/01/18 05:32:25;;;;;;;9.38;7.03;;;17.80;40.50;;;;;;5094910;28;20047;-54
2021/01/18 05:35:13;;;;;;;8.07;6.32;;;17.70;40.60;;;;;;5095640;28;20024;-54
2021/01/18 05:38:05;;;;;;;8.35;7.15;;;17.70;40.60;;;;;;5095129;28;20032;-54
2021/01/18 05:40:37;;;;;;;7.60;6.10;;;17.70;40.60;;;;;;5094899;28;20031;-64
2021/01/18 05:43:03;;;;;;;8.85;6.43;;;17.70;40.50;;;;;;5093925;28;20020;-63
2021/01/18 05:45:34;;;;;;;7.07;6.07;;;17.70;40.60;;;;;;5092856;28;20385;-63
2021/01/18 05:48:03;;;;;;;8.13;6.25;;;17.60;40.50;;;;;;5093902;28;20035;-63
2021/01/18 05:50:30;;;;;;;8.77;6.47;;;17.60;40.60;;;;;;5093928;28;20092;-60
2021/01/18 05:52:57;;;;;;;9.35;6.13;;;17.60;40.60;;;;;;5093080;28;20150;-64
2021/01/18 05:55:28;;;;;;;7.10;6.40;;;17.60;40.50;;;;;;5076038;28;20039;-63
2021/01/18 05:58:03;;;;;;;7.20;6.05;;;17.60;40.50;;;;;;5093759;28;20028;-63
2021/01/18 06:00:37;;;;;;;8.85;6.68;;;17.60;40.50;;;;;;5093696;28;20020;-63
2021/01/18 06:03:10;;;;;;;9.85;7.13;;;17.60;40.50;;;;;;5094106;28;20034;-63
2021/01/18 06:05:41;;;;;;;8.02;6.40;;;17.50;40.40;;;;;;5093183;28;20028;-64
2021/01/18 06:08:27;;;;;;;7.95;6.07;;;17.60;40.50;;;;;;5093911;28;20084;-63
2021/01/18 06:11:01;;;;;;;6.97;6.28;;;17.50;40.60;;;;;;5093788;28;20028;-63
2021/01/18 06:13:32;;;;;;;7.22;6.50;;;17.50;40.40;;;;;;5092554;28;20127;-63
2021/01/18 06:16:01;;;;;;;7.55;6.57;;;17.50;40.40;;;;;;5092026;28;20035;-64
2021/01/18 06:18:30;;;;;;;7.90;7.03;;;17.50;40.40;;;;;;5093704;28;20028;-64
2021/01/18 06:21:03;;;;;;;8.45;6.03;;;17.50;40.50;;;;;;5093609;28;20028;-62
2021/01/18 06:23:30;;;;;;;7.70;6.57;;;17.40;40.40;;;;;;5093868;28;20119;-62
2021/01/18 06:25:57;;;;;;;8.05;5.93;;;17.40;40.50;;;;;;5093490;28;20065;-59
2021/01/18 06:28:33;;;;;;;8.02;6.35;;;17.40;40.40;;;;;;5093377;28;20501;-60
2021/01/18 06:31:01;;;;;;;9.30;7.28;;;17.40;40.30;;;;;;5093723;28;20426;-58
2021/01/18 06:33:41;;;;;;;10.07;7.03;;;17.40;40.40;;;;;;5093279;28;20063;-59
2021/01/18 06:36:19;;;;;;;7.88;5.90;;;17.40;40.30;;;;;;5092284;28;20501;-60
2021/01/18 06:39:06;;;;;;;10.25;6.72;;;17.40;40.40;;;;;;5092166;28;20415;-59
2021/01/18 06:41:37;;;;;;;11.13;7.13;;;17.30;40.30;;;;;;5093767;28;20784;-64
2021/01/18 06:44:07;;;;;;;8.52;6.68;;;17.40;40.30;;;;;;5092228;28;20028;-62
2021/01/18 06:46:35;;;;;;;9.57;6.60;;;17.30;40.30;;;;;;5093361;28;20089;-63
2021/01/18 06:49:01;;;;;;;9.02;6.80;;;17.30;40.30;;;;;;5093147;28;20020;-63
2021/01/18 06:51:29;;;;;;;9.55;6.95;;;17.30;40.40;;;;;;5093273;28;20145;-59
2021/01/18 06:53:57;;;;;;;10.65;7.05;;;17.30;40.40;;;;;;5076923;28;20077;-63
2021/01/18 06:56:23;;;;;;;7.38;6.05;;;17.30;40.40;;;;;;5109356;27;20481;-59
2021/01/18 06:59:15;;;;;;;11.57;7.22;;;17.30;40.50;;;;;;5113123;28;20043;-59
2021/01/18 07:01:46;;;;;;;8.90;6.93;;;17.30;40.40;;;;;;5095155;28;20036;-51
2021/01/18 07:04:25;;;;;;;10.30;7.28;;;17.30;40.40;;;;;;5094605;28;20105;-50
2021/01/18 07:07:12;;;;;;;10.30;6.32;;;17.20;40.40;;;;;;5088289;28;20024;-51
2021/01/18 07:09:38;;;;;;;11.25;7.22;;;17.20;40.40;;;;;;5073682;28;20539;-50
2021/01/18 07:12:05;;;;;;;9.60;6.90;;;17.20;40.50;;;;;;5082382;28;20028;-50
2021/01/18 07:14:33;;;;;;;9.75;7.00;;;17.20;40.60;;;;;;5093776;28;20038;-51
2021/01/18 07:17:07;;;;;;;9.38;6.93;;;17.20;40.60;;;;;;5093601;28;20043;-54
2021/01/18 07:19:38;;;;;;;10.25;7.00;;;17.20;41.10;;;;;;5093423;28;20028;-53
2021/01/18 07:22:21;;;;;;;11.20;6.85;;;17.20;40.60;;;;;;5093556;28;20416;-53
2021/01/18 07:24:53;;;;;;;11.75;7.30;;;17.20;40.60;;;;;;5093807;28;20036;-53
2021/01/18 07:27:24;;;;;;;11.68;7.88;;;17.20;40.70;;;;;;5092553;28;20035;-53
2021/01/18 07:29:50;;;;;;;14.07;7.88;;;17.10;40.60;;;;;;5093715;28;20453;-51
2021/01/18 07:32:17;;;;;;;10.32;7.65;;;17.30;40.80;;;;;;5093312;28;20069;-54
2021/01/18 07:34:43;;;;;;;12.35;7.90;;;17.10;40.70;;;;;;5093687;28;20053;-53
2021/01/18 07:37:10;;;;;;;11.23;7.78;;;17.10;40.70;;;;;;5093561;28;20027;-54
2021/01/18 07:39:39;;;;;;;17.85;8.02;;;17.10;40.70;;;;;;5093522;28;20031;-54
2021/01/18 07:42:06;;;;;;;12.55;7.70;;;17.10;40.70;;;;;;5093366;28;20020;-54
2021/01/18 07:44:40;;;;;;;11.07;7.38;;;17.10;40.80;;;;;;5093911;28;20515;-53
2021/01/18 07:47:11;;;;;;;12.68;8.05;;;17.10;40.70;;;;;;5093370;28;20028;-50
2021/01/18 07:49:43;;;;;;;10.30;7.20;;;17.10;40.70;;;;;;5093286;28;20047;-53
2021/01/18 07:52:26;;;;;;;10.68;7.70;;;17.10;40.60;;;;;;5093418;28;20107;-54
2021/01/18 07:54:54;;;;;;;8.98;7.63;;;17.10;40.60;;;;;;5093454;28;20052;-54
2021/01/18 07:57:29;;;;;;;8.65;7.15;;;17.10;40.60;;;;;;5091962;28;20024;-53
2021/01/18 08:00:17;;;;;;;13.63;7.47;;;17.00;40.50;;;;;;5093151;28;20111;-56
2021/01/18 08:02:51;;;;;;;123.03;99.85;;;17.10;40.70;;;;;;5093124;28;20109;-56
2021/01/18 08:05:30;;;;;;;141.80;120.65;;;17.00;40.50;;;;;;5091669;28;20016;-54
2021/01/18 08:08:13;;;;;;;219.10;188.32;;;17.10;40.30;;;;;;5093014;28;20042;-50
2021/01/18 08:10:52;;;;;;;176.07;146.98;;;17.00;40.10;;;;;;5092500;28;20032;-54
2021/01/18 08:13:27;;;;;;;143.93;121.25;;;17.00;40.00;;;;;;5093105;28;20028;-54
2021/01/18 08:15:54;;;;;;;137.43;113.18;;;17.00;39.90;;;;;;5093126;28;20424;-54
2021/01/18 08:18:29;;;;;;;117.97;101.35;;;17.00;40.00;;;;;;5092794;28;20409;-54
2021/01/18 08:20:55;;;;;;;117.78;100.47;;;17.00;40.00;;;;;;5092865;28;20059;-52
2021/01/18 08:23:40;;;;;;;108.18;87.18;;;17.00;40.10;;;;;;5093274;28;20060;-51
2021/01/18 08:26:06;;;;;;;92.50;78.45;;;17.00;40.20;;;;;;5092855;28;20031;-50
2021/01/18 08:28:36;;;;;;;97.43;76.90;;;17.00;40.10;;;;;;5093666;28;20024;-50
2021/01/18 08:31:03;;;;;;;80.57;67.63;;;16.90;40.10;;;;;;5097145;28;20032;-50
2021/01/18 08:33:29;;;;;;;76.35;65.43;;;16.90;40.10;;;;;;5096603;28;20052;-50
2021/01/18 08:35:57;;;;;;;69.43;59.63;;;16.90;40.20;;;;;;5096621;28;20121;-54
2021/01/18 08:38:30;;;;;;;65.57;53.20;;;16.90;40.20;;;;;;5096421;28;20486;-53
2021/01/18 08:41:07;;;;;;;63.85;50.83;;;16.90;40.20;;;;;;5096602;28;20047;-54
2021/01/18 08:44:03;;;;;;;61.58;52.53;;;16.90;40.20;;;;;;5095451;28;20052;-51
2021/01/18 08:46:33;;;;;;;56.67;46.92;;;17.00;40.40;;;;;;5095041;28;20032;-54
2021/01/18 08:49:25;;;;;;;57.20;44.97;;;17.00;40.30;;;;;;5095559;28;20036;-50
2021/01/18 08:51:52;;;;;;;48.88;40.47;;;17.00;40.30;;;;;;5095566;28;20032;-53
2021/01/18 08:54:47;;;;;;;45.15;38.63;;;17.10;40.30;;;;;;5096223;28;20019;-50
2021/01/18 08:57:24;;;;;;;43.45;35.88;;;17.10;40.50;;;;;;5085799;28;20036;-61
2021/01/18 09:00:11;;;;;;;42.70;36.33;;;17.10;40.40;;;;;;5095435;28;20420;-61
2021/01/18 09:02:40;;;;;;;43.47;34.10;;;17.10;40.40;;;;;;5094524;28;20038;-61
2021/01/18 09:05:20;;;;;;;38.60;33.70;;;17.20;40.50;;;;;;5094971;28;20032;-62
2021/01/18 09:07:48;;;;;;;40.88;33.60;;;17.20;41.80;;;;;;5094834;28;20032;-61
2021/01/18 09:10:18;;;;;;;39.78;34.28;;;17.20;42.30;;;;;;5094778;28;20024;-59
2021/01/18 09:12:45;;;;;;;38.83;32.87;;;17.30;42.60;;;;;;5094879;28;20094;-63
2021/01/18 09:15:14;;;;;;;37.17;31.58;;;17.30;42.80;;;;;;5095031;28;20143;-62
2021/01/18 09:17:40;;;;;;;39.10;32.78;;;17.40;43.00;;;;;;5094523;28;20067;-54
2021/01/18 09:20:09;;;;;;;39.03;30.55;;;17.50;43.10;;;;;;5091711;28;20021;-56
2021/01/18 09:22:45;;;;;;;33.05;28.63;;;17.50;43.20;;;;;;5090488;28;20077;-50
2021/01/18 09:25:13;;;;;;;36.78;29.65;;;17.50;42.90;;;;;;5092178;28;20466;-51
2021/01/18 09:27:40;;;;;;;36.33;29.75;;;17.60;42.80;;;;;;5095098;28;20093;-50
2021/01/18 09:30:17;;;;;;;46.47;39.78;;;17.70;42.70;;;;;;5095738;28;20051;-50
2021/01/18 09:32:56;;;;;;;50.00;41.63;;;17.80;42.70;;;;;;5095336;28;20097;-51
2021/01/18 09:35:25;;;;;;;43.40;37.03;;;17.80;42.50;;;;;;5075764;28;20063;-54
2021/01/18 09:37:51;;;;;;;47.42;39.83;;;17.90;42.10;;;;;;5073899;28;20037;-54
2021/01/18 09:40:17;;;;;;;59.28;47.67;;;17.90;41.90;;;;;;5074172;28;20036;-54
2021/01/18 09:42:50;;;;;;;59.05;51.45;;;18.00;41.90;;;;;;5075426;28;20032;-51
2021/01/18 09:45:16;;;;;;;60.15;51.67;;;18.00;41.80;;;;;;5075490;28;20039;-55
2021/01/18 09:47:43;;;;;;;60.15;50.67;;;18.10;41.80;;;;;;5075111;28;20044;-51
2021/01/18 09:50:18;;;;;;;57.25;50.33;;;18.10;41.70;;;;;;5085531;28;20078;-55
2021/01/18 09:52:49;;;;;;;51.35;44.08;;;18.10;41.60;;;;;;5086176;28;20478;-55
2021/01/18 09:55:27;;;;;;;43.17;37.05;;;18.20;41.50;;;;;;5094564;28;20035;-53
2021/01/18 09:58:06;;;;;;;50.33;40.40;;;18.30;41.20;;;;;;5093870;28;20036;-50
2021/01/18 10:00:37;;;;;;;54.73;46.87;;;18.30;41.10;;;;;;5092695;28;20078;-55
2021/01/18 10:03:04;;;;;;;50.17;43.38;;;18.40;41.20;;;;;;5088912;28;20739;-50
2021/01/18 10:05:38;;;;;;;46.83;40.17;;;18.40;41.10;;;;;;5076829;28;20161;-58
2021/01/18 10:08:12;;;;;;;46.22;38.33;;;18.40;40.90;;;;;;5093077;28;20129;-58
2021/01/18 10:10:46;;;;;;;35.38;29.38;;;18.50;40.80;;;;;;5094344;28;20058;-58
2021/01/18 10:13:25;;;;;;;29.77;25.23;;;18.50;40.70;;;;;;5093864;28;20039;-58
2021/01/18 10:15:53;;;;;;;24.95;19.83;;;18.60;40.80;;;;;;5094201;28;20052;-54
2021/01/18 10:18:40;;;;;;;49.47;36.25;;;18.70;40.70;;;;;;5093495;28;20382;-57
2021/01/18 10:21:09;;;;;;;40.42;26.38;;;18.70;40.20;;;;;;5079224;28;20020;-54
2021/01/18 10:23:46;;;;;;;32.70;24.05;;;18.80;40.00;;;;;;5093841;28;20028;-54
2021/01/18 10:26:24;;;;;;;31.40;20.55;;;18.80;40.00;;;;;;5093553;28;20063;-55
2021/01/18 10:28:52;;;;;;;30.50;19.45;;;18.80;39.60;;;;;;5092558;28;20062;-54
2021/01/18 10:31:23;;;;;;;78.53;57.47;;;18.90;39.90;;;;;;5092850;28;20032;-53
2021/01/18 10:34:08;;;;;;;82.75;67.47;;;18.90;39.80;;;;;;5093774;28;20056;-54
2021/01/18 10:36:34;;;;;;;121.55;104.32;;;19.00;39.50;;;;;;5093934;28;20031;-55
2021/01/18 10:39:00;;;;;;;84.47;74.38;;;19.10;39.40;;;;;;5094464;28;20028;-54
2021/01/18 10:41:28;;;;;;;51.72;41.45;;;19.10;39.10;;;;;;5093951;28;20028;-54
2021/01/18 10:44:02;;;;;;;38.08;31.30;;;19.20;38.90;;;;;;5093942;28;20018;-54
2021/01/18 10:46:29;;;;;;;29.15;20.40;;;19.20;38.80;;;;;;5094046;28;20107;-55
2021/01/18 10:48:57;;;;;;;31.17;23.65;;;19.30;38.70;;;;;;5094330;28;20377;-55
2021/01/18 10:51:29;;;;;;;39.05;29.33;;;19.40;38.70;;;;;;5093655;28;20063;-55
2021/01/18 10:53:57;;;;;;;45.95;31.45;;;19.40;38.40;;;;;;5093687;28;20532;-54
2021/01/18 10:56:33;;;;;;;20.45;15.45;;;19.60;38.60;;;;;;5093699;28;20078;-54
2021/01/18 10:59:00;;;;;;;24.13;14.25;;;19.60;38.00;;;;;;5093308;28;20036;-57
2021/01/18 11:01:27;;;;;;;23.70;15.20;;;19.80;38.30;;;;;;5093862;28;20031;-57
2021/01/18 11:04:02;;;;;;;16.88;10.77;;;19.90;38.40;;;;;;5093791;28;20386;-58
2021/01/18 11:06:34;;;;;;;16.33;8.63;;;20.00;38.00;;;;;;5093739;28;20492;-55
2021/01/18 11:09:00;;;;;;;11.75;7.47;;;20.10;37.80;;;;;;5093900;28;20055;-55
2021/01/18 11:11:27;;;;;;;15.00;8.25;;;20.20;38.10;;;;;;5093691;28;20055;-55
2021/01/18 11:14:00;;;;;;;20.42;8.63;;;20.30;38.20;;;;;;5092194;28;20077;-55
2021/01/18 11:16:26;;;;;;;13.02;7.68;;;20.40;38.10;;;;;;5093461;28;20028;-55
2021/01/18 11:19:07;;;;;;;15.57;7.95;;;20.60;38.60;;;;;;5093083;28;20020;-55
2021/01/18 11:21:33;;;;;;;12.80;8.07;;;20.70;38.30;;;;;;5093154;28;20055;-54
2021/01/18 11:23:59;;;;;;;14.60;8.75;;;20.90;38.60;;;;;;5093280;28;20081;-54
2021/01/18 11:26:25;;;;;;;12.77;8.82;;;21.10;38.60;;;;;;5093476;28;20024;-54
2021/01/18 11:28:52;;;;;;;14.52;9.35;;;21.20;38.60;;;;;;5093239;28;20028;-54
2021/01/18 11:31:18;;;;;;;13.73;8.85;;;21.30;38.70;;;;;;5093652;28;20020;-53
2021/01/18 11:33:45;;;;;;;11.35;8.30;;;21.50;39.90;;;;;;5092987;28;20055;-51
2021/01/18 11:36:12;;;;;;;11.93;7.85;;;21.70;40.80;;;;;;5092268;28;20106;-51
2021/01/18 11:38:41;;;;;;;12.93;8.43;;;21.90;41.60;;;;;;5091627;28;20111;-51
2021/01/18 11:41:07;;;;;;;10.13;7.63;;;22.00;41.30;;;;;;5088096;28;20080;-51
2021/01/18 11:43:34;;;;;;;10.32;6.90;;;22.20;41.70;;;;;;5091506;28;20339;-52
2021/01/18 11:46:03;;;;;;;9.32;6.32;;;22.40;41.30;;;;;;5092277;28;20031;-50
2021/01/18 11:48:28;;;;;;;13.88;6.80;;;22.50;41.20;;;;;;5093005;28;20027;-51
2021/01/18 11:50:55;;;;;;;9.00;6.55;;;22.70;41.00;;;;;;5092763;28;20032;-52
2021/01/18 11:53:21;;;;;;;10.60;7.68;;;22.80;40.80;;;;;;5092585;28;20046;-51
2021/01/18 11:55:48;;;;;;;10.50;7.38;;;22.90;40.70;;;;;;5092526;28;20058;-51
2021/01/18 11:58:14;;;;;;;11.00;8.30;;;23.10;40.50;;;;;;5092860;28;20042;-54
2021/01/18 12:00:41;;;;;;;9.68;7.00;;;23.10;40.20;;;;;;5091683;28;20016;-51
2021/01/18 12:03:07;;;;;;;16.13;14.38;;;23.30;40.00;;;;;;5091531;28;20058;-54
2021/01/18 12:05:33;;;;;;;11.45;10.25;;;23.40;39.90;;;;;;5091697;28;20501;-51
2021/01/18 12:08:02;;;;;;;14.35;11.65;;;23.50;40.30;;;;;;5089694;28;20107;-51
2021/01/18 12:10:30;;;;;;;13.48;8.98;;;23.60;39.50;;;;;;5092365;28;20035;-51
2021/01/18 12:12:56;;;;;;;10.07;7.85;;;23.70;39.40;;;;;;5092577;28;20028;-50
2021/01/18 12:15:23;;;;;;;15.02;12.18;;;23.80;39.10;;;;;;5091191;28;20020;-50
2021/01/18 12:17:49;;;;;;;11.48;10.15;;;24.00;38.90;;;;;;5090843;28;20027;-56
2021/01/18 12:20:17;;;;;;;14.38;10.43;;;24.00;38.70;;;;;;5092686;28;20016;-55
2021/01/18 12:22:44;;;;;;;11.35;9.27;;;24.10;38.40;;;;;;5092841;28;20518;-50
2021/01/18 12:25:11;;;;;;;7.97;7.15;;;24.20;38.60;;;;;;5092509;28;20381;-50
2021/01/18 12:27:37;;;;;;;10.35;8.02;;;24.30;38.50;;;;;;5092815;28;20024;-56
2021/01/18 12:30:05;;;;;;;9.40;7.28;;;24.40;38.40;;;;;;5092918;28;20020;-50
2021/01/18 12:32:31;;;;;;;10.65;8.45;;;24.50;38.30;;;;;;5092448;28;20028;-54
2021/01/18 12:34:57;;;;;;;9.38;7.95;;;24.50;38.20;;;;;;5092706;28;20505;-53
2021/01/18 12:37:23;;;;;;;10.20;7.22;;;24.50;38.10;;;;;;5092711;28;20028;-51
2021/01/18 12:39:50;;;;;;;12.93;8.98;;;24.60;38.20;;;;;;5091129;28;20028;-51
2021/01/18 12:42:16;;;;;;;11.98;8.82;;;24.70;38.10;;;;;;5092610;28;20020;-49
2021/01/18 12:44:42;;;;;;;8.55;7.15;;;24.70;38.00;;;;;;5092610;28;20024;-52
2021/01/18 12:47:09;;;;;;;13.70;8.00;;;24.80;38.00;;;;;;5092443;28;20031;-50
2021/01/18 12:49:35;;;;;;;28.10;22.35;;;24.90;37.90;;;;;;5092351;28;20107;-50
2021/01/18 12:52:01;;;;;;;15.27;11.63;;;24.90;38.00;;;;;;5092716;28;20112;-50
2021/01/18 12:54:29;;;;;;;20.90;18.70;;;24.90;37.70;;;;;;5092269;28;20035;-52